Etusivu
METAR-TAF:

METAR-TAF

Lentoasemat :

Wink, Texas, Yhdysvallat

Leveyspiiri: 31-46-47N, Pituuspiiri: 103-12-05W, korkeus merenpinnasta: 860 m

Tämänhetkinen sää

Tämä raportti tehtiin 11 minuuttia sitten, kello 08.53 UTC
Tuuli 7 kn kaakosta
Lämpötila 24°C
Kosteus 36%
Ilmanpaine 1015 hPa
Näkyvyys: 16.1 km
selkeää

METAR: KINK 200853Z AUTO 14007KT 10SM CLR 24/08 A2996 RMK AO2 SLP090 T02440078 57000

Aika: 04:04 (09:04 UTC)

Sääennuste

Tämä raportti tehtiin 3 tuntia ja 44 minuuttia sitten, kello 05.20 UTC
Ennuste voimassa 20. päivästä klo 06 UTC - 21. päivään klo 06 UTC
Tuuli 9 kn kaakosta
Näkyvyys: 10 km
selkeää
From 20. päivästä klo 1800 UTC
Tuuli 10 kn kaakosta puuskistuen 18 kn:hen
Näkyvyys: 10 km
selkeää

TAF: KINK 200520Z 2006/2106 14009KT P6SM SKC FM201800 14010G18KT P6SM SKC

Säähavainnot ja -ennusteet yli 4000 lentoasemalta (METAR- ja TAF-raportit).

Käytössä olevat sääasemat on merkitty karttaan keltaisilla ja punaisilla pisteillä.

Aseta hiiri pisteen päälle nähdäksesi sääaseman nimen.

Klikkaa sitten nähdäksesi säähavainnot ja -ennusteet.

Kartan vaihtaminen: klikkaa mustalla rastilla varustettuja vihreitä pisteitä, niin voit zoomata sisään; viivalla varustettua vihreää pistettä, niin voit zoomata ulos tai vihreitä nuolia, niin pääset viereisille kartoille.


METAR-TAF: